Martinstown, Missouri
Current Conditions -  °F | °C
As of 12:50 PM on Sunday 23 Nov 2014 (Local Time) from KTVK Reporting Station
Light Rain Light Rain  
Wind Chill: 54°   Ceiling: NA
Heat Index: 54°   Visibility: 9mi
Dew Point: 54°   Wind: 6mph
Humidity: 100%   Direction: 170°S
Pressure: 29.4"   Gusts: NA
Location:  40.4961°N, 92.9907°W
Report Text: KTVK 231850Z AUTO 17005KT 9SM -RA 12/12 A2940 RMK AO2 P0003
Loading
Personal Weather Stations






























Interactive Weather Map New forecast layout! Learn more

10-Day Weather Forecast

Advertisements
Track Severe Weather on mobile